Terminal Aerodrome Forecast
Issued by NWS Tuscon, AZ

Home | Current Version | Previous Version | Text Only | Print | Product List | Glossary On
Versions: 1 2 3 4 5 6 7 8 9 10 11 12 13 14 15 16 17 18 19 20
000
FTUS45 KTWC 171700
TAFTUS
TAF
KTUS 171737Z 1718/1818 12011KT P6SM -SHRA FEW025 SCT050 OVC070
     FM172000 13013G18KT P6SM SHRA SCT025 BKN040 OVC060
      TEMPO 1722/1802 4SM TSRA SCT015 BKN030CB
     FM180600 14016G24KT P6SM -SHRA SCT025 BKN040
     FM181100 18012G18KT P6SM -SHRA FEW012 SCT025 OVC045=

USA.gov is the U.S. government's official web portal to all federal, state and local government web resources and services.